Robin De Jong

Recruteur - AZ
21 Oct 2027
Jeudi
Processus

Personnalité

Adaptabilité (2) Ambition (11) Controverse (13) Loyauté (6) Pression (20) Professionnalisme (9) Sportivité (3) Tempérament (7)

Profil

Style d'entraînement Démocratique
Diplôme Continental C
Détermination 8
Gestion des joueurs 8
Motivation 10
Discipline 7
Satisfaction professionnelle
100%
Fatigue
0%
Rôle Recruteur
Salaire 18.2K p/s
Contrat 14.03.2028

Performance

Comportement Bon
Efficacité de l'entraînement
52%
Développement des joueurs
55%
Prévention des blessures
65%
Mise en place tactique
50%

Événements récents

A évalué un joueur maintenant
A participé à une réunion de recrutement maintenant
A participé à une réunion de recrutement maintenant
A recommandé une cible de transfert maintenant
A évalué un joueur 7j
A observé un match 7j
A évalué un joueur 7j
A évalué un joueur 7j

Suivi en cours

167
Joueur Club Statut Capacité Confiance Observé Dernière observation Dernier vote
Brian Brobbey Sunderland Actif 144 / 141 40% 1 20.10.2027 -
Nicolas Jackson Aston Villa Actif 147 / 158 40% 1 20.10.2027 -
Gabriel Martinelli Brighton Actif 161 / 156 40% 4 18.10.2027 -
Dango Ouattara Brentford Actif 150 / 143 40% 2 18.10.2027 -
Georginio Rutter Brighton Actif 155 / 159 40% 2 16.10.2027 -
Lorenzo Lucca Napoli Actif 141 / 155 40% 2 16.10.2027 -
Chimobi Igwilo Rangers International Actif 104 / 90 40% 1 16.10.2027 -
Agustín Ruberto River Plate Actif 125 / 136 40% 1 16.10.2027 -
Paulinho Palmeiras Actif 140 / 146 40% 5 15.10.2027 -
Nico Paz Real Sociedad Actif 167 / 159 40% 1 15.10.2027 -
Georges Mikautadze Villarreal Actif 160 / 155 40% 3 13.10.2027 -
Marcos Antonio Sport Recife Actif 144 / 137 40% 3 13.10.2027 -
Abel Ruiz Girona Actif 147 / 147 40% 2 13.10.2027 -
Gabri Veiga Feyenoord Actif 165 / 159 40% 1 13.10.2027 -
Karim Konaté Red Bull Salzburg Actif 141 / 144 40% 2 11.10.2027 -
Evann Guessand Aston Villa Actif 152 / 158 40% 3 10.10.2027 -
Ansu Fati Monaco Actif 146 / 150 40% 1 10.10.2027 -
Isaac Romero Monaco Actif 151 / 136 40% 2 09.10.2027 -
Liam Delap Nottingham Forest Actif 151 / 144 40% 3 09.10.2027 -
Youri Baas Bournemouth Actif 151 / 154 40% 2 09.10.2027 -
Mateo Silvetti Los Angeles Football Club Actif 113 / 130 40% 1 09.10.2027 -
Iliman N'Diaye Everton Actif 166 / 160 40% 3 07.10.2027 -
Kevin Schade Brentford Actif 152 / 149 40% 1 07.10.2027 -
Diego López Rayo Vallecano Actif 151 / 142 40% 1 07.10.2027 -
Rodrigo Garro Corinthians Actif 136 / 139 40% 1 07.10.2027 -
Kevin Angulo America de Cali Actif 111 / 109 40% 1 07.10.2027 -
Rayan Bournemouth Actif 136 / 154 40% 1 07.10.2027 -
Samuel Lino Flamengo Actif 139 / 149 40% 1 05.10.2027 -
Igor Jesus Newcastle United Actif 148 / 147 40% 2 03.10.2027 -
Ismaël Bennacer Malmo FF Actif 144 / 149 40% 1 03.10.2027 -
Maurício Palmeiras Actif 142 / 137 40% 1 03.10.2027 -
Emam Ashour Alianza Lima Actif 146 / 133 40% 2 02.10.2027 -
Takefusa Kubo Real Sociedad Actif 155 / 154 40% 2 30.09.2027 -
Matías Fernández-Pardo Newcastle United Actif 141 / 155 40% 1 29.09.2027 -
Christian Tielemans KV Oostende Actif 142 / 142 40% 2 25.09.2027 -
Brennan Johnson Stoke City Actif 152 / 145 40% 2 25.09.2027 -
João Félix Porto Actif 156 / 158 40% 1 25.09.2027 -
Babis Kostoulas Brighton Actif 143 / 147 40% 1 24.09.2027 -
Kauã Elias Anderlecht Actif 129 / 130 40% 1 22.09.2027 -
Ez Abde Girona Actif 147 / 149 40% 1 21.09.2027 -
Barış Alper Yılmaz Galatasaray Actif 152 / 165 40% 1 21.09.2027 -
Gonzalo Fulham Actif 142 / 142 40% 3 20.09.2027 -
Fábio Carvalho Sheffield Wednesday Actif 143 / 137 40% 1 19.09.2027 -
Joshua Zirkzee Manchester United Actif 151 / 146 40% 1 18.09.2027 -
Thiago Brentford Actif 143 / 145 40% 3 15.09.2027 -
Ramón Sosa Palmeiras Actif 128 / 130 40% 1 15.09.2027 -
Endrick Real Madrid Actif 145 / 162 40% 1 14.09.2027 -
Vitinho Botafogo Actif 131 / 142 40% 1 13.09.2027 -
Duvan Rangel La Equidad Actif 145 / 133 40% 2 09.09.2027 -
David Valencia Alianza Petrolera Actif 129 / 135 40% 1 09.09.2027 -
Jonathan Dubasin Osasuna Actif 151 / 143 40% 1 08.09.2027 -
Luis Sinisterra Cruzeiro Actif 151 / 144 40% 1 07.09.2027 -
Seymour Reid New York City Perdu 93 / 104 40% 1 30.08.2027 -
Dylan Cabral Arsenal Actif 103 / 95 40% 1 30.08.2027 -
Musa Malik Ikorodu City Actif 77 / 112 40% 1 16.08.2027 -
Araphat Mohammed Berekum Chelsea Actif 98 / 121 40% 1 16.08.2027 -
Shea Lacey Wolverhampton Actif 121 / 136 40% 1 09.08.2027 -
Ethan Williams Peterborough United Actif 114 / 119 40% 1 09.08.2027 -
Assane Diao Lazio Actif 144 / 153 40% 1 04.08.2027 -
Yusi Alavés Actif 134 / 130 40% 2 03.08.2027 -
Leo Castledine Middlesbrough Actif 124 / 146 40% 1 03.08.2027 -
Mateus Mané Manchester United Actif 134 / 141 40% 1 30.07.2027 -
Ezekiel Kwame Alladoh Philadelphia Union Actif 117 / 133 40% 1 30.07.2027 -
Federico Serra Arezzo Actif 93 / 103 40% 1 29.07.2027 -
Gustavo Ferreira Benfica Actif 93 / 94 40% 1 29.07.2027 -
Chineme Chinonso Ikorodu City Actif 81 / 81 40% 1 28.07.2027 -
Fletcher Holman Swindon Town Actif 91 / 101 40% 1 28.07.2027 -
Pape Diong Westerlo Actif 119 / 126 40% 1 20.07.2027 -
Pol Tristán Barnsley Actif 123 / 112 40% 4 03.06.2027 -
Filip Marschall Stevenage Actif 109 / 108 40% 3 03.06.2027 -
Will Dennis Milton Keynes Dons Actif 106 / 103 40% 1 03.06.2027 -
Zach Hemming Chesterfield Actif 109 / 103 40% 1 03.06.2027 -
Lorenzo Palmisani Frosinone Actif 132 / 143 40% 5 02.06.2027 -
Raúl Rangel Sporting CP Actif 132 / 142 40% 1 02.06.2027 -
Maximiliano Araújo Crystal Palace Négociation 147 / 148 93% 1 01.06.2027 -
Roberto Alvarado Monaco Négociation 139 / 139 66% 1 01.06.2027 -
Jakub Kiwior Everton Négociation 156 / 156 93% 1 01.06.2027 -
Toni Fruk KV Mechelen Actif 132 / 133 66% 1 01.06.2027 Approuver
Kota Tawaratsumida River Plate Actif 133 / 136 66% 1 01.06.2027 Approuver
Robin Roefs Sunderland Actif 139 / 149 40% 6 30.05.2027 -
Gift Hlatshwayo Free State Stars Actif 108 / 114 40% 3 28.05.2027 -
Ties Wieggers De Graafschap Actif 109 / 115 40% 4 27.05.2027 -
Antonio Gomis Vizela Actif 128 / 126 40% 5 26.05.2027 -
James Trafford Leeds United Actif 153 / 143 40% 7 25.05.2027 -
Lorenzo Cordaro Pergolettese Actif 102 / 97 40% 4 25.05.2027 -
Rome-Jayden Owusu-Oduro Feyenoord Actif 136 / 128 40% 4 24.05.2027 -
Francesco D'Alterio Ternana Actif 110 / 101 40% 6 22.05.2027 -
Emre Bilgin Giresunspor Actif 117 / 112 40% 4 20.05.2027 -
Davide Mastrantonio Latina Actif 97 / 94 40% 4 19.05.2027 -
Anton Zhylkin Karpaty Actif 91 / 116 40% 2 18.05.2027 -
Andrea Sergio Mazza Giana Erminio Actif 100 / 99 40% 1 18.05.2027 -
Valerio Boffelli Cavese Actif 107 / 107 40% 2 16.05.2027 -
Killian Cahill Leyton Orient Actif 103 / 102 40% 2 12.05.2027 -
William Rovida Pro Patria Actif 101 / 114 40% 1 12.05.2027 -
Sergio Barlocco Trento Actif 111 / 109 40% 3 02.05.2027 -
Mathieu Patouillet Stade Brestois Actif 118 / 114 40% 2 30.04.2027 -
Deniz Ertaş Konyaspor Actif 107 / 137 40% 1 30.04.2027 -
Strahinja Manojlović Radnicki Nis Actif 110 / 107 40% 4 28.04.2027 -
Radek Vítek Middlesbrough Actif 140 / 143 40% 9 26.04.2027 -
Guillaume Restes Toulouse FC Actif 130 / 137 40% 2 26.04.2027 -
Erick Reyes Toluca Actif 140 / 154 40% 9 24.04.2027 -
Tomáš Frühwald Bohemians 1905 Actif 121 / 121 40% 3 24.04.2027 -
Elia Boseggia Novara Actif 108 / 117 40% 1 20.04.2027 -
Kostantis Tzolakis Hull City Actif 141 / 146 40% 8 12.04.2027 -
Adam Hrdina Zbrojovka Brno Actif 115 / 104 40% 2 09.04.2027 -
Matteo Rizzo Cosenza Actif 98 / 109 40% 1 08.04.2027 -
Ilja Tuseev Chelyabinsk Actif 105 / 109 40% 3 22.03.2027 -
Justin Treichel Roda Actif 104 / 104 40% 2 17.03.2027 -
Aimar Osasuna Actif 147 / 154 40% 1 31.12.2026 -
Félix Lemaréchal Club Brugge Actif 141 / 130 40% 3 30.12.2026 -
Javi Puado Espanyol Actif 148 / 155 40% 2 30.12.2026 -
Orbelín Pineda Monterrey Actif 136 / 150 40% 3 28.12.2026 -
Mykyta Turbaievskyi Zorya Actif 116 / 103 40% 1 27.12.2026 -
Sem Steijn Feyenoord Actif 153 / 144 40% 2 26.12.2026 Plus d'infos
Fedor Lapoukhov CSKA Sofia Actif 112 / 113 40% 1 26.12.2026 -
Jakub Surovčík Sparta Prague Actif 114 / 105 40% 1 26.12.2026 -
Denys Ihnatenko Livyi Bereh Actif 121 / 119 40% 2 24.12.2026 -
Joaquín Panichelli Le Havre AC Actif 135 / 131 40% 1 24.12.2026 -
Ilias Sebaoui Sint-Truiden Actif 121 / 118 40% 2 22.12.2026 -
Jan Koutný Sigma Olomouc Actif 119 / 125 40% 1 22.12.2026 -
Myron van Brederode KV Mechelen Actif 126 / 130 40% 1 19.12.2026 -
Yoann Cathline Utrecht Actif 139 / 123 40% 1 17.12.2026 -
Franko Kolić Istra 1961 Actif 106 / 97 40% 1 14.12.2026 -
Jan Virgili Club Brugge Actif 132 / 135 40% 3 13.12.2026 -
Viktor Tsygankov Ajax Actif 150 / 159 40% 3 10.12.2026 -
Agustín Palavecino Cruz Azul Actif 140 / 124 40% 4 10.12.2026 -
Murphy Cooper Plymouth Argyle Actif 111 / 123 40% 1 09.12.2026 -
Alexandr Koryakin Krasnodar Actif 96 / 125 40% 1 06.12.2026 -
Thorgan Witsel KV Oostende Actif 135 / 132 40% 4 04.12.2026 -
Juninho Pumas UNAM Actif 130 / 136 40% 5 30.11.2026 -
Carlos Vicente Birmingham Actif 144 / 143 40% 1 30.11.2026 -
Heorhii Yermakov Metalist Actif 113 / 104 40% 1 29.11.2026 -
Marco Asensio Fenerbahce Actif 147 / 167 40% 1 17.11.2026 -
Ruben van Bommel Ferencvaros Actif 118 / 132 40% 1 14.11.2026 -
Adnan Courtois KV Oostende Actif 130 / 126 40% 1 14.11.2026 -
Oleksandr Saputin Poltava Actif 108 / 112 40% 1 14.11.2026 -
Manuel Rios La Equidad Actif 109 / 95 40% 3 07.11.2026 -
Freddie Potts Club Brugge Actif 128 / 135 40% 1 06.11.2026 -
Oscar Gloukh Ajax Actif 144 / 130 40% 1 05.11.2026 -
Marezi Portsmouth Actif 126 / 116 40% 1 31.10.2026 -
Adriano Bertaccini Anderlecht Actif 134 / 133 40% 2 30.10.2026 -
Yeremy Pino Crystal Palace Actif 141 / 141 40% 1 26.10.2026 -
Tristan Degreef Anderlecht Actif 116 / 115 40% 1 26.10.2026 -
Yaimar Medina Racing Genk Actif 113 / 113 40% 2 25.10.2026 -
Rafiu Durosinmi Racing Genk Actif 123 / 134 40% 2 21.10.2026 -
Luciano Valente Feyenoord Actif 128 / 132 40% 1 20.10.2026 -
Xavi Simons Tottenham Actif 160 / 154 40% 2 17.10.2026 -
Gabriel Jesus Barcelona Actif 162 / 143 40% 1 17.10.2026 -
Mario Stroeykens Anderlecht Actif 124 / 118 40% 2 13.10.2026 -
Bart van Rooij Twente Actif 130 / 136 40% 1 13.10.2026 -
Julian Brandt Ajax Actif 144 / 143 40% 1 11.10.2026 -
Nahuel Galardi Maipú Actif 107 / 101 40% 2 09.10.2026 -
Ilay Camara Anderlecht Actif 138 / 141 40% 2 08.10.2026 -
Reiss Nelson Aston Villa Actif 134 / 143 40% 1 08.10.2026 -
Anis Hadj Moussa Feyenoord Actif 136 / 126 40% 1 05.10.2026 -
Yannick Vanaken KV Oostende Actif 125 / 120 40% 1 05.10.2026 -
Brais Méndez Columbus Crew Actif 151 / 154 40% 2 04.10.2026 -
Tomás Chancalay Minnesota United FC Actif 139 / 110 40% 1 02.10.2026 -
Bénie Traoré New York City Actif 120 / 128 40% 2 30.09.2026 -
Chris Lokesa Waasland-Beveren Actif 119 / 134 40% 1 27.09.2026 -
Mikkel Damsgaard Brentford Actif 149 / 146 40% 1 27.09.2026 -
Nikolas Polster NEC Actif 131 / 128 40% 1 20.09.2026 -
Facundo Vila Estudiantes Actif 90 / 95 40% 1 20.09.2026 -
Federico Varese Racing Actif 113 / 112 40% 1 14.09.2026 -
Danylo Sikan Anderlecht Actif 123 / 132 40% 2 12.09.2026 -
Sebastiaan Timmers Racing Genk Actif 77 / 92 40% 1 11.09.2026 -
Dávid Strelec Middlesbrough Actif 132 / 138 40% 1 10.09.2026 -